sensor_id;sensor_type;location;lat;lon;timestamp;temperature;humidity
15959;DHT22;8078;47.822;9.402;2022-12-24T00:02:10;8.70;99.90
15959;DHT22;8078;47.822;9.402;2022-12-24T00:04:36;8.70;99.90
15959;DHT22;8078;47.822;9.402;2022-12-24T00:07:01;8.60;99.90
15959;DHT22;8078;47.822;9.402;2022-12-24T00:09:27;8.70;99.90
15959;DHT22;8078;47.822;9.402;2022-12-24T00:11:52;8.50;99.90
15959;DHT22;8078;47.822;9.402;2022-12-24T00:14:18;8.50;99.90
15959;DHT22;8078;47.822;9.402;2022-12-24T00:16:43;8.60;99.90
15959;DHT22;8078;47.822;9.402;2022-12-24T00:19:09;8.50;99.90
15959;DHT22;8078;47.822;9.402;2022-12-24T00:21:34;8.50;99.90
15959;DHT22;8078;47.822;9.402;2022-12-24T00:24:00;8.50;99.90
15959;DHT22;8078;47.822;9.402;2022-12-24T00:26:28;8.50;99.90
15959;DHT22;8078;47.822;9.402;2022-12-24T00:28:54;8.60;99.90
15959;DHT22;8078;47.822;9.402;2022-12-24T00:31:19;8.50;99.90
15959;DHT22;8078;47.822;9.402;2022-12-24T00:33:46;8.60;99.90
15959;DHT22;8078;47.822;9.402;2022-12-24T00:36:12;8.50;99.90
15959;DHT22;8078;47.822;9.402;2022-12-24T00:38:38;8.50;99.90
15959;DHT22;8078;47.822;9.402;2022-12-24T00:41:05;8.50;99.90
15959;DHT22;8078;47.822;9.402;2022-12-24T00:43:56;8.60;99.90
15959;DHT22;8078;47.822;9.402;2022-12-24T00:46:23;8.50;99.90
15959;DHT22;8078;47.822;9.402;2022-12-24T00:48:48;8.50;99.90
15959;DHT22;8078;47.822;9.402;2022-12-24T00:51:14;8.40;99.90
15959;DHT22;8078;47.822;9.402;2022-12-24T00:53:40;8.40;99.90
15959;DHT22;8078;47.822;9.402;2022-12-24T00:56:06;8.40;99.90
15959;DHT22;8078;47.822;9.402;2022-12-24T00:58:32;8.40;99.90
15959;DHT22;8078;47.822;9.402;2022-12-24T01:00:58;8.50;99.90
15959;DHT22;8078;47.822;9.402;2022-12-24T01:03:24;8.40;99.90
15959;DHT22;8078;47.822;9.402;2022-12-24T01:06:00;8.50;99.90
15959;DHT22;8078;47.822;9.402;2022-12-24T01:08:26;8.50;99.90
15959;DHT22;8078;47.822;9.402;2022-12-24T01:10:52;8.40;99.90
15959;DHT22;8078;47.822;9.402;2022-12-24T01:13:18;8.50;99.90
15959;DHT22;8078;47.822;9.402;2022-12-24T01:15:43;8.40;99.90
15959;DHT22;8078;47.822;9.402;2022-12-24T01:18:09;8.40;99.90
15959;DHT22;8078;47.822;9.402;2022-12-24T01:20:34;8.40;99.90
15959;DHT22;8078;47.822;9.402;2022-12-24T01:23:00;8.50;99.90
15959;DHT22;8078;47.822;9.402;2022-12-24T01:25:25;8.40;99.90
15959;DHT22;8078;47.822;9.402;2022-12-24T01:27:51;8.40;99.90
15959;DHT22;8078;47.822;9.402;2022-12-24T01:30:17;8.50;99.90
15959;DHT22;8078;47.822;9.402;2022-12-24T01:32:42;8.50;99.90
15959;DHT22;8078;47.822;9.402;2022-12-24T01:35:08;8.50;99.90
15959;DHT22;8078;47.822;9.402;2022-12-24T01:37:34;8.50;99.90
15959;DHT22;8078;47.822;9.402;2022-12-24T01:40:00;8.50;99.90
15959;DHT22;8078;47.822;9.402;2022-12-24T01:42:46;8.50;99.90
15959;DHT22;8078;47.822;9.402;2022-12-24T01:45:45;8.50;99.90
15959;DHT22;8078;47.822;9.402;2022-12-24T01:48:39;8.50;99.90
15959;DHT22;8078;47.822;9.402;2022-12-24T01:51:14;8.50;99.90
15959;DHT22;8078;47.822;9.402;2022-12-24T01:53:44;8.50;99.90
15959;DHT22;8078;47.822;9.402;2022-12-24T01:56:12;8.40;99.90
15959;DHT22;8078;47.822;9.402;2022-12-24T01:58:42;8.40;99.90
15959;DHT22;8078;47.822;9.402;2022-12-24T02:01:09;8.40;99.90
15959;DHT22;8078;47.822;9.402;2022-12-24T02:03:35;8.50;99.90
15959;DHT22;8078;47.822;9.402;2022-12-24T02:06:00;8.50;99.90
15959;DHT22;8078;47.822;9.402;2022-12-24T02:08:26;8.50;99.90
15959;DHT22;8078;47.822;9.402;2022-12-24T02:11:09;8.50;99.90
15959;DHT22;8078;47.822;9.402;2022-12-24T02:13:34;8.40;99.90
15959;DHT22;8078;47.822;9.402;2022-12-24T02:19:03;8.40;99.90
15959;DHT22;8078;47.822;9.402;2022-12-24T02:21:51;8.40;99.90
15959;DHT22;8078;47.822;9.402;2022-12-24T02:30:41;8.50;99.90
15959;DHT22;8078;47.822;9.402;2022-12-24T02:33:17;8.40;99.90
15959;DHT22;8078;47.822;9.402;2022-12-24T02:35:56;8.40;99.90
15959;DHT22;8078;47.822;9.402;2022-12-24T02:38:55;8.50;99.90
15959;DHT22;8078;47.822;9.402;2022-12-24T02:41:28;8.50;99.90
15959;DHT22;8078;47.822;9.402;2022-12-24T02:44:14;8.50;99.90
15959;DHT22;8078;47.822;9.402;2022-12-24T02:46:40;8.40;99.90
15959;DHT22;8078;47.822;9.402;2022-12-24T02:49:06;8.40;99.90
15959;DHT22;8078;47.822;9.402;2022-12-24T02:51:31;8.40;99.90
15959;DHT22;8078;47.822;9.402;2022-12-24T02:53:57;8.30;99.90
15959;DHT22;8078;47.822;9.402;2022-12-24T02:56:40;8.30;99.90
15959;DHT22;8078;47.822;9.402;2022-12-24T03:01:56;8.30;99.90
15959;DHT22;8078;47.822;9.402;2022-12-24T03:07:20;8.30;99.90
15959;DHT22;8078;47.822;9.402;2022-12-24T03:12:33;8.20;99.90
15959;DHT22;8078;47.822;9.402;2022-12-24T03:14:59;8.40;99.90
15959;DHT22;8078;47.822;9.402;2022-12-24T03:17:25;8.30;99.90
15959;DHT22;8078;47.822;9.402;2022-12-24T03:19:53;8.30;99.90
15959;DHT22;8078;47.822;9.402;2022-12-24T03:22:20;8.30;99.90
15959;DHT22;8078;47.822;9.402;2022-12-24T03:24:46;8.40;99.90
15959;DHT22;8078;47.822;9.402;2022-12-24T03:27:13;8.30;99.90
15959;DHT22;8078;47.822;9.402;2022-12-24T03:29:40;8.30;99.90
15959;DHT22;8078;47.822;9.402;2022-12-24T03:32:05;8.30;99.90
15959;DHT22;8078;47.822;9.402;2022-12-24T03:34:31;8.20;99.90
15959;DHT22;8078;47.822;9.402;2022-12-24T03:36:57;8.20;99.90
15959;DHT22;8078;47.822;9.402;2022-12-24T03:39:22;8.30;99.90
15959;DHT22;8078;47.822;9.402;2022-12-24T03:41:48;8.30;99.90
15959;DHT22;8078;47.822;9.402;2022-12-24T03:44:14;8.30;99.90
15959;DHT22;8078;47.822;9.402;2022-12-24T03:46:39;8.20;99.90
15959;DHT22;8078;47.822;9.402;2022-12-24T03:49:05;8.30;99.90
15959;DHT22;8078;47.822;9.402;2022-12-24T03:51:30;8.20;99.90
15959;DHT22;8078;47.822;9.402;2022-12-24T03:53:58;8.30;99.90
15959;DHT22;8078;47.822;9.402;2022-12-24T03:56:24;8.30;99.90
15959;DHT22;8078;47.822;9.402;2022-12-24T03:58:50;8.30;99.90
15959;DHT22;8078;47.822;9.402;2022-12-24T04:01:16;8.20;99.90
15959;DHT22;8078;47.822;9.402;2022-12-24T04:03:43;8.20;99.90
15959;DHT22;8078;47.822;9.402;2022-12-24T04:06:14;8.20;99.90
15959;DHT22;8078;47.822;9.402;2022-12-24T04:08:40;8.20;99.90
15959;DHT22;8078;47.822;9.402;2022-12-24T04:11:08;8.10;99.90
15959;DHT22;8078;47.822;9.402;2022-12-24T04:13:34;8.10;99.90
15959;DHT22;8078;47.822;9.402;2022-12-24T04:16:02;8.10;99.90
15959;DHT22;8078;47.822;9.402;2022-12-24T04:18:28;8.10;99.90
15959;DHT22;8078;47.822;9.402;2022-12-24T04:20:54;8.10;99.90
15959;DHT22;8078;47.822;9.402;2022-12-24T04:23:20;8.10;99.90
15959;DHT22;8078;47.822;9.402;2022-12-24T04:25:46;8.10;99.90
15959;DHT22;8078;47.822;9.402;2022-12-24T04:28:11;8.10;99.90
15959;DHT22;8078;47.822;9.402;2022-12-24T04:30:38;8.10;99.90
15959;DHT22;8078;47.822;9.402;2022-12-24T04:33:03;8.00;99.90
15959;DHT22;8078;47.822;9.402;2022-12-24T04:35:29;8.10;99.90
15959;DHT22;8078;47.822;9.402;2022-12-24T04:37:55;8.10;99.90
15959;DHT22;8078;47.822;9.402;2022-12-24T04:40:20;8.00;99.90
15959;DHT22;8078;47.822;9.402;2022-12-24T04:42:46;8.00;99.90
15959;DHT22;8078;47.822;9.402;2022-12-24T04:45:11;8.00;99.90
15959;DHT22;8078;47.822;9.402;2022-12-24T04:47:37;8.00;99.90
15959;DHT22;8078;47.822;9.402;2022-12-24T04:50:03;8.00;99.90
15959;DHT22;8078;47.822;9.402;2022-12-24T04:52:28;8.00;99.90
15959;DHT22;8078;47.822;9.402;2022-12-24T04:54:54;7.90;99.90
15959;DHT22;8078;47.822;9.402;2022-12-24T04:57:19;7.90;99.90
15959;DHT22;8078;47.822;9.402;2022-12-24T04:59:45;7.90;99.90
15959;DHT22;8078;47.822;9.402;2022-12-24T05:02:11;7.90;99.90
15959;DHT22;8078;47.822;9.402;2022-12-24T05:04:36;7.80;99.90
15959;DHT22;8078;47.822;9.402;2022-12-24T05:07:02;7.80;99.90
15959;DHT22;8078;47.822;9.402;2022-12-24T05:09:28;7.80;99.90
15959;DHT22;8078;47.822;9.402;2022-12-24T05:11:53;7.80;99.90
15959;DHT22;8078;47.822;9.402;2022-12-24T05:14:19;7.70;99.90
15959;DHT22;8078;47.822;9.402;2022-12-24T05:16:44;7.80;99.90
15959;DHT22;8078;47.822;9.402;2022-12-24T05:19:10;7.70;99.90
15959;DHT22;8078;47.822;9.402;2022-12-24T05:21:36;7.70;99.90
15959;DHT22;8078;47.822;9.402;2022-12-24T05:24:01;7.70;99.90
15959;DHT22;8078;47.822;9.402;2022-12-24T05:26:49;7.80;99.90
15959;DHT22;8078;47.822;9.402;2022-12-24T05:29:15;7.70;99.90
15959;DHT22;8078;47.822;9.402;2022-12-24T05:31:42;7.70;99.90
15959;DHT22;8078;47.822;9.402;2022-12-24T05:34:10;7.70;99.90
15959;DHT22;8078;47.822;9.402;2022-12-24T05:36:36;7.60;99.90
15959;DHT22;8078;47.822;9.402;2022-12-24T05:39:02;7.60;99.90
15959;DHT22;8078;47.822;9.402;2022-12-24T05:41:28;7.60;99.90
15959;DHT22;8078;47.822;9.402;2022-12-24T05:43:54;7.60;99.90
15959;DHT22;8078;47.822;9.402;2022-12-24T05:46:21;7.60;99.90
15959;DHT22;8078;47.822;9.402;2022-12-24T05:48:48;7.50;99.90
15959;DHT22;8078;47.822;9.402;2022-12-24T05:51:15;7.60;99.90
15959;DHT22;8078;47.822;9.402;2022-12-24T05:53:44;7.60;99.90
15959;DHT22;8078;47.822;9.402;2022-12-24T05:56:12;7.50;99.90
15959;DHT22;8078;47.822;9.402;2022-12-24T05:58:38;7.50;99.90
15959;DHT22;8078;47.822;9.402;2022-12-24T06:01:05;7.40;99.90
15959;DHT22;8078;47.822;9.402;2022-12-24T06:03:32;7.40;99.90
15959;DHT22;8078;47.822;9.402;2022-12-24T06:06:03;7.40;99.90
15959;DHT22;8078;47.822;9.402;2022-12-24T06:08:29;7.40;99.90
15959;DHT22;8078;47.822;9.402;2022-12-24T06:10:57;7.40;99.90
15959;DHT22;8078;47.822;9.402;2022-12-24T06:13:23;7.40;99.90
15959;DHT22;8078;47.822;9.402;2022-12-24T06:15:50;7.40;99.90
15959;DHT22;8078;47.822;9.402;2022-12-24T06:18:15;7.40;99.90
15959;DHT22;8078;47.822;9.402;2022-12-24T06:20:41;7.40;99.90
15959;DHT22;8078;47.822;9.402;2022-12-24T06:23:06;7.30;99.90
15959;DHT22;8078;47.822;9.402;2022-12-24T06:25:33;7.30;99.90
15959;DHT22;8078;47.822;9.402;2022-12-24T06:27:58;7.30;99.90
15959;DHT22;8078;47.822;9.402;2022-12-24T06:30:24;7.30;99.90
15959;DHT22;8078;47.822;9.402;2022-12-24T06:32:49;7.30;99.90
15959;DHT22;8078;47.822;9.402;2022-12-24T06:35:15;7.30;99.90
15959;DHT22;8078;47.822;9.402;2022-12-24T06:37:41;7.30;99.90
15959;DHT22;8078;47.822;9.402;2022-12-24T06:40:07;7.30;99.90
15959;DHT22;8078;47.822;9.402;2022-12-24T06:42:33;7.30;99.90
15959;DHT22;8078;47.822;9.402;2022-12-24T06:44:58;7.30;99.90
15959;DHT22;8078;47.822;9.402;2022-12-24T06:47:24;7.20;99.90
15959;DHT22;8078;47.822;9.402;2022-12-24T06:49:49;7.20;99.90
15959;DHT22;8078;47.822;9.402;2022-12-24T06:52:15;7.20;99.90
15959;DHT22;8078;47.822;9.402;2022-12-24T06:54:40;7.20;99.90
15959;DHT22;8078;47.822;9.402;2022-12-24T06:57:06;7.20;99.90
15959;DHT22;8078;47.822;9.402;2022-12-24T06:59:32;7.20;99.90
15959;DHT22;8078;47.822;9.402;2022-12-24T07:01:57;7.20;99.90
15959;DHT22;8078;47.822;9.402;2022-12-24T07:04:23;7.20;99.90
15959;DHT22;8078;47.822;9.402;2022-12-24T07:06:48;7.10;99.90
15959;DHT22;8078;47.822;9.402;2022-12-24T07:09:14;7.10;99.90
15959;DHT22;8078;47.822;9.402;2022-12-24T07:11:40;7.10;99.90
15959;DHT22;8078;47.822;9.402;2022-12-24T07:14:05;7.10;99.90
15959;DHT22;8078;47.822;9.402;2022-12-24T07:16:31;7.10;99.90
15959;DHT22;8078;47.822;9.402;2022-12-24T07:18:56;7.10;99.90
15959;DHT22;8078;47.822;9.402;2022-12-24T07:21:22;7.10;99.90
15959;DHT22;8078;47.822;9.402;2022-12-24T07:23:48;7.00;99.90
15959;DHT22;8078;47.822;9.402;2022-12-24T07:26:13;7.00;99.90
15959;DHT22;8078;47.822;9.402;2022-12-24T07:28:39;7.00;99.90
15959;DHT22;8078;47.822;9.402;2022-12-24T07:31:04;6.90;99.90
15959;DHT22;8078;47.822;9.402;2022-12-24T07:33:30;6.90;99.90
15959;DHT22;8078;47.822;9.402;2022-12-24T07:36:00;6.90;99.90
15959;DHT22;8078;47.822;9.402;2022-12-24T07:38:27;6.80;99.90
15959;DHT22;8078;47.822;9.402;2022-12-24T07:40:52;6.80;99.90
15959;DHT22;8078;47.822;9.402;2022-12-24T07:43:18;6.70;99.90
15959;DHT22;8078;47.822;9.402;2022-12-24T07:45:44;6.70;99.90
15959;DHT22;8078;47.822;9.402;2022-12-24T07:48:09;6.60;99.90
15959;DHT22;8078;47.822;9.402;2022-12-24T07:50:35;6.60;99.90
15959;DHT22;8078;47.822;9.402;2022-12-24T07:53:00;6.50;99.90
15959;DHT22;8078;47.822;9.402;2022-12-24T07:55:26;6.50;99.90
15959;DHT22;8078;47.822;9.402;2022-12-24T07:57:51;6.40;99.90
15959;DHT22;8078;47.822;9.402;2022-12-24T08:00:17;6.40;99.90
15959;DHT22;8078;47.822;9.402;2022-12-24T08:02:43;6.30;99.90
15959;DHT22;8078;47.822;9.402;2022-12-24T08:05:08;6.30;99.90
15959;DHT22;8078;47.822;9.402;2022-12-24T08:07:34;6.30;99.90
15959;DHT22;8078;47.822;9.402;2022-12-24T08:09:59;6.20;99.90
15959;DHT22;8078;47.822;9.402;2022-12-24T08:12:25;6.20;99.90
15959;DHT22;8078;47.822;9.402;2022-12-24T08:14:51;6.20;99.90
15959;DHT22;8078;47.822;9.402;2022-12-24T08:17:16;6.20;99.90
15959;DHT22;8078;47.822;9.402;2022-12-24T08:19:42;6.20;99.90
15959;DHT22;8078;47.822;9.402;2022-12-24T08:22:07;6.10;99.90
15959;DHT22;8078;47.822;9.402;2022-12-24T08:24:33;6.10;99.90
15959;DHT22;8078;47.822;9.402;2022-12-24T08:26:58;6.10;99.90
15959;DHT22;8078;47.822;9.402;2022-12-24T08:29:24;6.10;99.90
15959;DHT22;8078;47.822;9.402;2022-12-24T08:31:49;6.00;99.90
15959;DHT22;8078;47.822;9.402;2022-12-24T08:34:15;6.00;99.90
15959;DHT22;8078;47.822;9.402;2022-12-24T08:36:41;6.00;99.90
15959;DHT22;8078;47.822;9.402;2022-12-24T08:39:06;6.00;99.90
15959;DHT22;8078;47.822;9.402;2022-12-24T08:41:33;6.00;99.90
15959;DHT22;8078;47.822;9.402;2022-12-24T08:43:59;5.90;99.90
15959;DHT22;8078;47.822;9.402;2022-12-24T08:46:25;5.90;99.90
15959;DHT22;8078;47.822;9.402;2022-12-24T08:48:50;5.90;99.90
15959;DHT22;8078;47.822;9.402;2022-12-24T08:51:16;5.90;99.90
15959;DHT22;8078;47.822;9.402;2022-12-24T08:53:43;5.90;99.90
15959;DHT22;8078;47.822;9.402;2022-12-24T08:56:10;5.90;99.90
15959;DHT22;8078;47.822;9.402;2022-12-24T08:58:35;5.90;99.90
15959;DHT22;8078;47.822;9.402;2022-12-24T09:01:10;5.90;99.90
15959;DHT22;8078;47.822;9.402;2022-12-24T09:03:36;5.90;99.90
15959;DHT22;8078;47.822;9.402;2022-12-24T09:06:03;5.90;99.90
15959;DHT22;8078;47.822;9.402;2022-12-24T09:08:30;5.90;99.90
15959;DHT22;8078;47.822;9.402;2022-12-24T09:11:04;5.90;99.90
15959;DHT22;8078;47.822;9.402;2022-12-24T09:13:30;5.90;99.90
15959;DHT22;8078;47.822;9.402;2022-12-24T09:15:55;5.80;99.90
15959;DHT22;8078;47.822;9.402;2022-12-24T09:18:21;5.80;99.90
15959;DHT22;8078;47.822;9.402;2022-12-24T09:20:46;5.80;99.90
15959;DHT22;8078;47.822;9.402;2022-12-24T09:23:12;5.90;99.90
15959;DHT22;8078;47.822;9.402;2022-12-24T09:25:41;5.80;99.90
15959;DHT22;8078;47.822;9.402;2022-12-24T09:28:07;5.80;99.90
15959;DHT22;8078;47.822;9.402;2022-12-24T09:30:33;5.80;99.90
15959;DHT22;8078;47.822;9.402;2022-12-24T09:32:58;5.80;99.90
15959;DHT22;8078;47.822;9.402;2022-12-24T09:35:24;5.80;99.90
15959;DHT22;8078;47.822;9.402;2022-12-24T09:37:49;5.80;99.90
15959;DHT22;8078;47.822;9.402;2022-12-24T09:40:37;5.80;99.90
15959;DHT22;8078;47.822;9.402;2022-12-24T09:43:11;5.80;99.90
15959;DHT22;8078;47.822;9.402;2022-12-24T09:45:43;5.80;99.90
15959;DHT22;8078;47.822;9.402;2022-12-24T09:48:16;5.80;99.90
15959;DHT22;8078;47.822;9.402;2022-12-24T09:51:11;5.80;99.90
15959;DHT22;8078;47.822;9.402;2022-12-24T09:53:47;5.80;99.90
15959;DHT22;8078;47.822;9.402;2022-12-24T09:56:19;5.80;99.90
15959;DHT22;8078;47.822;9.402;2022-12-24T09:58:48;5.80;99.90
15959;DHT22;8078;47.822;9.402;2022-12-24T10:01:16;5.80;99.90
15959;DHT22;8078;47.822;9.402;2022-12-24T10:03:42;5.80;99.90
15959;DHT22;8078;47.822;9.402;2022-12-24T10:11:27;5.90;99.90
15959;DHT22;8078;47.822;9.402;2022-12-24T10:14:07;5.90;99.90
15959;DHT22;8078;47.822;9.402;2022-12-24T10:16:54;5.90;99.90
15959;DHT22;8078;47.822;9.402;2022-12-24T10:22:10;6.00;99.90
15959;DHT22;8078;47.822;9.402;2022-12-24T10:27:21;6.00;99.90
15959;DHT22;8078;47.822;9.402;2022-12-24T10:29:51;6.00;99.90
15959;DHT22;8078;47.822;9.402;2022-12-24T10:32:24;6.00;99.90
15959;DHT22;8078;47.822;9.402;2022-12-24T10:35:00;6.00;99.90
15959;DHT22;8078;47.822;9.402;2022-12-24T10:37:29;6.00;99.90
15959;DHT22;8078;47.822;9.402;2022-12-24T10:39:56;6.00;99.90
15959;DHT22;8078;47.822;9.402;2022-12-24T10:42:26;5.90;99.90
15959;DHT22;8078;47.822;9.402;2022-12-24T10:45:00;6.00;99.90
15959;DHT22;8078;47.822;9.402;2022-12-24T10:47:28;5.90;99.90
15959;DHT22;8078;47.822;9.402;2022-12-24T10:52:50;5.90;99.90
15959;DHT22;8078;47.822;9.402;2022-12-24T10:57:44;5.90;99.90
15959;DHT22;8078;47.822;9.402;2022-12-24T11:00:22;5.90;99.90
15959;DHT22;8078;47.822;9.402;2022-12-24T11:05:36;6.00;99.90
15959;DHT22;8078;47.822;9.402;2022-12-24T11:10:55;6.00;99.90
15959;DHT22;8078;47.822;9.402;2022-12-24T11:13:28;6.00;99.90
15959;DHT22;8078;47.822;9.402;2022-12-24T11:16:14;6.00;99.90
15959;DHT22;8078;47.822;9.402;2022-12-24T11:18:52;6.10;99.90
15959;DHT22;8078;47.822;9.402;2022-12-24T11:21:38;6.10;99.90
15959;DHT22;8078;47.822;9.402;2022-12-24T11:24:25;6.10;99.90
15959;DHT22;8078;47.822;9.402;2022-12-24T11:26:52;6.10;99.90
15959;DHT22;8078;47.822;9.402;2022-12-24T11:29:25;6.10;99.90
15959;DHT22;8078;47.822;9.402;2022-12-24T11:31:51;6.00;99.90
15959;DHT22;8078;47.822;9.402;2022-12-24T11:34:31;6.00;99.90
15959;DHT22;8078;47.822;9.402;2022-12-24T11:37:15;5.90;99.90
15959;DHT22;8078;47.822;9.402;2022-12-24T11:39:46;6.00;99.90
15959;DHT22;8078;47.822;9.402;2022-12-24T11:42:31;6.00;99.90
15959;DHT22;8078;47.822;9.402;2022-12-24T11:44:59;5.90;99.90
15959;DHT22;8078;47.822;9.402;2022-12-24T11:47:37;5.90;99.90
15959;DHT22;8078;47.822;9.402;2022-12-24T11:50:29;5.90;99.90
15959;DHT22;8078;47.822;9.402;2022-12-24T11:55:44;5.90;99.90
15959;DHT22;8078;47.822;9.402;2022-12-24T12:00:59;5.90;99.90
15959;DHT22;8078;47.822;9.402;2022-12-24T12:03:37;5.90;99.90
15959;DHT22;8078;47.822;9.402;2022-12-24T12:06:34;5.90;99.90
15959;DHT22;8078;47.822;9.402;2022-12-24T12:09:05;5.80;99.90
15959;DHT22;8078;47.822;9.402;2022-12-24T12:11:33;5.80;99.90
15959;DHT22;8078;47.822;9.402;2022-12-24T12:14:00;5.80;99.90
15959;DHT22;8078;47.822;9.402;2022-12-24T12:16:44;5.80;99.90
15959;DHT22;8078;47.822;9.402;2022-12-24T12:22:44;5.90;99.90
15959;DHT22;8078;47.822;9.402;2022-12-24T12:27:54;5.90;99.90
15959;DHT22;8078;47.822;9.402;2022-12-24T12:30:21;5.90;99.90
15959;DHT22;8078;47.822;9.402;2022-12-24T12:32:58;5.90;99.90
15959;DHT22;8078;47.822;9.402;2022-12-24T12:35:37;6.00;99.90
15959;DHT22;8078;47.822;9.402;2022-12-24T12:38:06;6.00;99.90
15959;DHT22;8078;47.822;9.402;2022-12-24T12:40:47;6.00;99.90
15959;DHT22;8078;47.822;9.402;2022-12-24T12:43:28;6.00;99.90
15959;DHT22;8078;47.822;9.402;2022-12-24T12:46:10;6.00;99.90
15959;DHT22;8078;47.822;9.402;2022-12-24T12:48:59;6.10;99.90
15959;DHT22;8078;47.822;9.402;2022-12-24T12:57:33;6.20;99.90
15959;DHT22;8078;47.822;9.402;2022-12-24T13:00:09;6.20;99.90
15959;DHT22;8078;47.822;9.402;2022-12-24T13:10:26;6.40;99.90
15959;DHT22;8078;47.822;9.402;2022-12-24T13:21:58;6.30;99.90
15959;DHT22;8078;47.822;9.402;2022-12-24T13:24:26;6.20;99.90
15959;DHT22;8078;47.822;9.402;2022-12-24T13:27:15;6.20;99.90
15959;DHT22;8078;47.822;9.402;2022-12-24T13:32:49;6.30;99.90
15959;DHT22;8078;47.822;9.402;2022-12-24T13:37:43;6.20;99.90
15959;DHT22;8078;47.822;9.402;2022-12-24T13:50:44;6.20;99.90
15959;DHT22;8078;47.822;9.402;2022-12-24T13:53:39;6.10;99.90
15959;DHT22;8078;47.822;9.402;2022-12-24T13:56:21;6.10;99.90
15959;DHT22;8078;47.822;9.402;2022-12-24T13:58:50;6.10;99.90
15959;DHT22;8078;47.822;9.402;2022-12-24T14:01:22;6.10;99.90
15959;DHT22;8078;47.822;9.402;2022-12-24T14:03:59;6.00;99.90
15959;DHT22;8078;47.822;9.402;2022-12-24T14:06:27;6.10;99.90
15959;DHT22;8078;47.822;9.402;2022-12-24T14:09:15;6.10;99.90
15959;DHT22;8078;47.822;9.402;2022-12-24T14:14:40;6.20;99.90
15959;DHT22;8078;47.822;9.402;2022-12-24T14:19:55;6.40;99.90
15959;DHT22;8078;47.822;9.402;2022-12-24T14:24:57;6.50;99.90
15959;DHT22;8078;47.822;9.402;2022-12-24T14:30:07;6.50;99.90
15959;DHT22;8078;47.822;9.402;2022-12-24T14:32:39;6.60;99.90
15959;DHT22;8078;47.822;9.402;2022-12-24T14:37:38;6.50;99.90
15959;DHT22;8078;47.822;9.402;2022-12-24T14:40:05;6.40;99.90
15959;DHT22;8078;47.822;9.402;2022-12-24T14:45:43;6.30;99.90
15959;DHT22;8078;47.822;9.402;2022-12-24T14:51:27;6.20;99.90
15959;DHT22;8078;47.822;9.402;2022-12-24T14:54:00;6.10;99.90
15959;DHT22;8078;47.822;9.402;2022-12-24T14:56:30;6.10;99.90
15959;DHT22;8078;47.822;9.402;2022-12-24T14:58:55;6.10;99.90
15959;DHT22;8078;47.822;9.402;2022-12-24T15:01:28;6.10;99.90
15959;DHT22;8078;47.822;9.402;2022-12-24T15:06:44;6.00;99.90
15959;DHT22;8078;47.822;9.402;2022-12-24T15:09:19;6.00;99.90
15959;DHT22;8078;47.822;9.402;2022-12-24T15:11:47;6.00;99.90
15959;DHT22;8078;47.822;9.402;2022-12-24T15:14:14;6.00;99.90
15959;DHT22;8078;47.822;9.402;2022-12-24T15:16:40;6.00;99.90
15959;DHT22;8078;47.822;9.402;2022-12-24T15:19:21;6.00;99.90
15959;DHT22;8078;47.822;9.402;2022-12-24T15:21:49;6.00;99.90
15959;DHT22;8078;47.822;9.402;2022-12-24T15:24:28;6.00;99.90
15959;DHT22;8078;47.822;9.402;2022-12-24T15:26:55;5.90;99.90
15959;DHT22;8078;47.822;9.402;2022-12-24T15:29:26;5.90;99.90
15959;DHT22;8078;47.822;9.402;2022-12-24T15:31:55;5.90;99.90
15959;DHT22;8078;47.822;9.402;2022-12-24T15:37:12;5.90;99.90
15959;DHT22;8078;47.822;9.402;2022-12-24T15:39:39;5.90;99.90
15959;DHT22;8078;47.822;9.402;2022-12-24T15:42:06;5.80;99.90
15959;DHT22;8078;47.822;9.402;2022-12-24T15:44:40;5.80;99.90
15959;DHT22;8078;47.822;9.402;2022-12-24T15:47:16;5.80;99.90
15959;DHT22;8078;47.822;9.402;2022-12-24T15:49:47;5.80;99.90
15959;DHT22;8078;47.822;9.402;2022-12-24T15:52:16;5.80;99.90
15959;DHT22;8078;47.822;9.402;2022-12-24T15:54:45;5.80;99.90
15959;DHT22;8078;47.822;9.402;2022-12-24T15:57:32;5.80;99.90
15959;DHT22;8078;47.822;9.402;2022-12-24T15:59:59;5.80;99.90
15959;DHT22;8078;47.822;9.402;2022-12-24T16:02:35;5.80;99.90
15959;DHT22;8078;47.822;9.402;2022-12-24T16:05:39;5.80;99.90
15959;DHT22;8078;47.822;9.402;2022-12-24T16:10:52;5.70;99.90
15959;DHT22;8078;47.822;9.402;2022-12-24T16:13:28;5.70;99.90
15959;DHT22;8078;47.822;9.402;2022-12-24T16:18:33;5.70;99.90
15959;DHT22;8078;47.822;9.402;2022-12-24T16:20:59;5.70;99.90
15959;DHT22;8078;47.822;9.402;2022-12-24T16:23:51;5.70;99.90
15959;DHT22;8078;47.822;9.402;2022-12-24T16:26:17;5.70;99.90
15959;DHT22;8078;47.822;9.402;2022-12-24T16:28:42;5.70;99.90
15959;DHT22;8078;47.822;9.402;2022-12-24T16:31:16;5.70;99.90
15959;DHT22;8078;47.822;9.402;2022-12-24T16:33:42;5.70;99.90
15959;DHT22;8078;47.822;9.402;2022-12-24T16:36:09;5.60;99.90
15959;DHT22;8078;47.822;9.402;2022-12-24T16:38:34;5.60;99.90
15959;DHT22;8078;47.822;9.402;2022-12-24T16:41:20;5.60;99.90
15959;DHT22;8078;47.822;9.402;2022-12-24T16:43:47;5.60;99.90
15959;DHT22;8078;47.822;9.402;2022-12-24T16:46:16;5.60;99.90
15959;DHT22;8078;47.822;9.402;2022-12-24T16:48:45;5.60;99.90
15959;DHT22;8078;47.822;9.402;2022-12-24T16:51:12;5.60;99.90
15959;DHT22;8078;47.822;9.402;2022-12-24T16:53:37;5.60;99.90
15959;DHT22;8078;47.822;9.402;2022-12-24T16:56:03;5.60;99.90
15959;DHT22;8078;47.822;9.402;2022-12-24T16:58:29;5.60;99.90
15959;DHT22;8078;47.822;9.402;2022-12-24T17:00:54;5.60;99.90
15959;DHT22;8078;47.822;9.402;2022-12-24T17:03:20;5.60;99.90
15959;DHT22;8078;47.822;9.402;2022-12-24T17:05:46;5.60;99.90
15959;DHT22;8078;47.822;9.402;2022-12-24T17:08:12;5.60;99.90
15959;DHT22;8078;47.822;9.402;2022-12-24T17:10:38;5.60;99.90
15959;DHT22;8078;47.822;9.402;2022-12-24T17:13:03;5.60;99.90
15959;DHT22;8078;47.822;9.402;2022-12-24T17:15:29;5.60;99.90
15959;DHT22;8078;47.822;9.402;2022-12-24T17:17:55;5.60;99.90
15959;DHT22;8078;47.822;9.402;2022-12-24T17:20:21;5.60;99.90
15959;DHT22;8078;47.822;9.402;2022-12-24T17:22:48;5.60;99.90
15959;DHT22;8078;47.822;9.402;2022-12-24T17:25:13;5.60;99.90
15959;DHT22;8078;47.822;9.402;2022-12-24T17:27:40;5.60;99.90
15959;DHT22;8078;47.822;9.402;2022-12-24T17:30:06;5.60;99.90
15959;DHT22;8078;47.822;9.402;2022-12-24T17:32:32;5.60;99.90
15959;DHT22;8078;47.822;9.402;2022-12-24T17:34:58;5.60;99.90
15959;DHT22;8078;47.822;9.402;2022-12-24T17:37:27;5.60;99.90
15959;DHT22;8078;47.822;9.402;2022-12-24T17:39:53;5.60;99.90
15959;DHT22;8078;47.822;9.402;2022-12-24T17:42:19;5.60;99.90
15959;DHT22;8078;47.822;9.402;2022-12-24T17:44:44;5.60;99.90
15959;DHT22;8078;47.822;9.402;2022-12-24T17:47:10;5.60;99.90
15959;DHT22;8078;47.822;9.402;2022-12-24T17:49:35;5.60;99.90
15959;DHT22;8078;47.822;9.402;2022-12-24T17:52:01;5.60;99.90
15959;DHT22;8078;47.822;9.402;2022-12-24T17:54:29;5.60;99.90
15959;DHT22;8078;47.822;9.402;2022-12-24T17:56:54;5.70;99.90
15959;DHT22;8078;47.822;9.402;2022-12-24T17:59:20;5.70;99.90
15959;DHT22;8078;47.822;9.402;2022-12-24T18:01:45;5.70;99.90
15959;DHT22;8078;47.822;9.402;2022-12-24T18:04:11;5.70;99.90
15959;DHT22;8078;47.822;9.402;2022-12-24T18:06:40;5.80;99.90
15959;DHT22;8078;47.822;9.402;2022-12-24T18:09:05;5.80;99.90
15959;DHT22;8078;47.822;9.402;2022-12-24T18:11:33;5.80;99.90
15959;DHT22;8078;47.822;9.402;2022-12-24T18:14:00;5.80;99.90
15959;DHT22;8078;47.822;9.402;2022-12-24T18:16:37;5.80;99.90